sensor_id;sensor_type;location;lat;lon;timestamp;P1;durP1;ratioP1;P2;durP2;ratioP2
30948;SDS011;17637;51.984;21.208;2023-09-08T00:00:35;10.85;;;8.88;;
30948;SDS011;17637;51.984;21.208;2023-09-08T00:03:07;11.07;;;6.97;;
30948;SDS011;17637;51.984;21.208;2023-09-08T00:05:39;10.15;;;8.27;;
30948;SDS011;17637;51.984;21.208;2023-09-08T00:08:11;8.68;;;6.65;;
30948;SDS011;17637;51.984;21.208;2023-09-08T00:10:43;11.10;;;7.35;;
30948;SDS011;17637;51.984;21.208;2023-09-08T00:13:15;11.75;;;8.05;;
30948;SDS011;17637;51.984;21.208;2023-09-08T00:15:47;10.38;;;6.68;;
30948;SDS011;17637;51.984;21.208;2023-09-08T00:18:19;11.25;;;7.47;;
30948;SDS011;17637;51.984;21.208;2023-09-08T00:20:51;7.88;;;6.68;;
30948;SDS011;17637;51.984;21.208;2023-09-08T00:23:22;8.77;;;6.90;;
30948;SDS011;17637;51.984;21.208;2023-09-08T00:25:54;8.73;;;7.05;;
30948;SDS011;17637;51.984;21.208;2023-09-08T00:28:26;13.27;;;7.43;;
30948;SDS011;17637;51.984;21.208;2023-09-08T00:30:58;8.95;;;6.55;;
30948;SDS011;17637;51.984;21.208;2023-09-08T00:33:31;10.05;;;6.93;;
30948;SDS011;17637;51.984;21.208;2023-09-08T00:36:03;11.13;;;6.95;;
30948;SDS011;17637;51.984;21.208;2023-09-08T00:38:35;11.85;;;8.05;;
30948;SDS011;17637;51.984;21.208;2023-09-08T00:41:08;10.63;;;7.32;;
30948;SDS011;17637;51.984;21.208;2023-09-08T00:43:40;12.35;;;7.50;;
30948;SDS011;17637;51.984;21.208;2023-09-08T00:46:12;17.95;;;6.80;;
30948;SDS011;17637;51.984;21.208;2023-09-08T00:48:44;12.07;;;6.97;;
30948;SDS011;17637;51.984;21.208;2023-09-08T00:51:16;10.55;;;7.28;;
30948;SDS011;17637;51.984;21.208;2023-09-08T00:53:49;13.75;;;7.90;;
30948;SDS011;17637;51.984;21.208;2023-09-08T00:56:21;9.70;;;6.95;;
30948;SDS011;17637;51.984;21.208;2023-09-08T00:58:54;9.90;;;7.28;;
30948;SDS011;17637;51.984;21.208;2023-09-08T01:01:26;8.35;;;7.18;;
30948;SDS011;17637;51.984;21.208;2023-09-08T01:03:58;14.02;;;7.82;;
30948;SDS011;17637;51.984;21.208;2023-09-08T01:06:30;12.23;;;7.20;;
30948;SDS011;17637;51.984;21.208;2023-09-08T01:09:04;10.63;;;7.50;;
30948;SDS011;17637;51.984;21.208;2023-09-08T01:11:37;12.70;;;7.85;;
30948;SDS011;17637;51.984;21.208;2023-09-08T01:14:11;15.15;;;8.52;;
30948;SDS011;17637;51.984;21.208;2023-09-08T01:16:44;11.65;;;8.55;;
30948;SDS011;17637;51.984;21.208;2023-09-08T01:19:16;13.95;;;8.38;;
30948;SDS011;17637;51.984;21.208;2023-09-08T01:21:59;10.68;;;8.13;;
30948;SDS011;17637;51.984;21.208;2023-09-08T01:27:40;10.70;;;7.70;;
30948;SDS011;17637;51.984;21.208;2023-09-08T01:30:17;10.25;;;7.97;;
30948;SDS011;17637;51.984;21.208;2023-09-08T01:32:50;9.85;;;7.13;;
30948;SDS011;17637;51.984;21.208;2023-09-08T01:35:23;8.93;;;6.97;;
30948;SDS011;17637;51.984;21.208;2023-09-08T01:37:55;9.68;;;7.00;;
30948;SDS011;17637;51.984;21.208;2023-09-08T01:40:27;8.00;;;6.70;;
30948;SDS011;17637;51.984;21.208;2023-09-08T01:42:59;11.32;;;7.55;;
30948;SDS011;17637;51.984;21.208;2023-09-08T01:45:31;7.03;;;6.30;;
30948;SDS011;17637;51.984;21.208;2023-09-08T01:48:02;9.32;;;6.70;;
30948;SDS011;17637;51.984;21.208;2023-09-08T01:50:34;10.48;;;6.85;;
30948;SDS011;17637;51.984;21.208;2023-09-08T01:53:06;8.32;;;6.97;;
30948;SDS011;17637;51.984;21.208;2023-09-08T01:55:38;7.15;;;6.43;;
30948;SDS011;17637;51.984;21.208;2023-09-08T01:58:10;10.77;;;6.53;;
30948;SDS011;17637;51.984;21.208;2023-09-08T02:00:42;10.25;;;6.68;;
30948;SDS011;17637;51.984;21.208;2023-09-08T02:03:14;7.80;;;6.93;;
30948;SDS011;17637;51.984;21.208;2023-09-08T02:05:46;9.32;;;6.55;;
30948;SDS011;17637;51.984;21.208;2023-09-08T02:08:18;9.15;;;7.35;;
30948;SDS011;17637;51.984;21.208;2023-09-08T02:10:50;8.68;;;6.40;;
30948;SDS011;17637;51.984;21.208;2023-09-08T02:13:22;10.30;;;7.50;;
30948;SDS011;17637;51.984;21.208;2023-09-08T02:15:54;8.95;;;7.22;;
30948;SDS011;17637;51.984;21.208;2023-09-08T02:18:26;8.68;;;7.18;;
30948;SDS011;17637;51.984;21.208;2023-09-08T02:20:59;8.75;;;6.80;;
30948;SDS011;17637;51.984;21.208;2023-09-08T02:23:31;9.88;;;6.63;;
30948;SDS011;17637;51.984;21.208;2023-09-08T02:26:03;9.02;;;7.07;;
30948;SDS011;17637;51.984;21.208;2023-09-08T02:28:35;8.75;;;7.70;;
30948;SDS011;17637;51.984;21.208;2023-09-08T02:31:08;10.30;;;7.97;;
30948;SDS011;17637;51.984;21.208;2023-09-08T02:33:40;10.00;;;7.28;;
30948;SDS011;17637;51.984;21.208;2023-09-08T02:36:12;8.65;;;6.82;;
30948;SDS011;17637;51.984;21.208;2023-09-08T02:38:44;8.65;;;6.25;;
30948;SDS011;17637;51.984;21.208;2023-09-08T02:41:16;10.10;;;7.10;;
30948;SDS011;17637;51.984;21.208;2023-09-08T02:43:48;9.55;;;7.20;;
30948;SDS011;17637;51.984;21.208;2023-09-08T02:46:20;11.48;;;8.30;;
30948;SDS011;17637;51.984;21.208;2023-09-08T02:48:52;9.48;;;7.80;;
30948;SDS011;17637;51.984;21.208;2023-09-08T02:51:24;11.63;;;8.93;;
30948;SDS011;17637;51.984;21.208;2023-09-08T02:53:56;10.63;;;8.25;;
30948;SDS011;17637;51.984;21.208;2023-09-08T02:56:28;15.20;;;10.43;;
30948;SDS011;17637;51.984;21.208;2023-09-08T02:59:00;10.95;;;9.32;;
30948;SDS011;17637;51.984;21.208;2023-09-08T03:01:32;15.18;;;9.77;;
30948;SDS011;17637;51.984;21.208;2023-09-08T03:04:04;15.82;;;10.40;;
30948;SDS011;17637;51.984;21.208;2023-09-08T03:06:36;13.60;;;9.82;;
30948;SDS011;17637;51.984;21.208;2023-09-08T03:09:08;14.13;;;9.88;;
30948;SDS011;17637;51.984;21.208;2023-09-08T03:11:40;13.60;;;9.57;;
30948;SDS011;17637;51.984;21.208;2023-09-08T03:14:12;12.65;;;9.70;;
30948;SDS011;17637;51.984;21.208;2023-09-08T03:16:44;12.48;;;8.60;;
30948;SDS011;17637;51.984;21.208;2023-09-08T03:19:16;10.25;;;8.20;;
30948;SDS011;17637;51.984;21.208;2023-09-08T03:21:48;9.30;;;8.40;;
30948;SDS011;17637;51.984;21.208;2023-09-08T03:24:19;11.13;;;7.88;;
30948;SDS011;17637;51.984;21.208;2023-09-08T03:26:51;9.50;;;7.70;;
30948;SDS011;17637;51.984;21.208;2023-09-08T03:29:23;8.93;;;7.75;;
30948;SDS011;17637;51.984;21.208;2023-09-08T03:31:55;10.40;;;8.20;;
30948;SDS011;17637;51.984;21.208;2023-09-08T03:34:27;11.25;;;8.70;;
30948;SDS011;17637;51.984;21.208;2023-09-08T03:36:59;11.63;;;8.10;;
30948;SDS011;17637;51.984;21.208;2023-09-08T03:39:31;8.43;;;7.53;;
30948;SDS011;17637;51.984;21.208;2023-09-08T03:42:03;13.00;;;8.50;;
30948;SDS011;17637;51.984;21.208;2023-09-08T03:44:35;13.90;;;8.25;;
30948;SDS011;17637;51.984;21.208;2023-09-08T03:47:07;8.55;;;7.18;;
30948;SDS011;17637;51.984;21.208;2023-09-08T03:49:39;10.30;;;7.80;;
30948;SDS011;17637;51.984;21.208;2023-09-08T03:52:11;11.93;;;8.18;;
30948;SDS011;17637;51.984;21.208;2023-09-08T03:54:43;8.07;;;7.28;;
30948;SDS011;17637;51.984;21.208;2023-09-08T03:57:17;10.30;;;8.18;;
30948;SDS011;17637;51.984;21.208;2023-09-08T03:59:49;9.23;;;8.18;;
30948;SDS011;17637;51.984;21.208;2023-09-08T04:02:21;10.95;;;9.45;;
30948;SDS011;17637;51.984;21.208;2023-09-08T04:04:53;11.48;;;8.60;;
30948;SDS011;17637;51.984;21.208;2023-09-08T04:07:25;12.80;;;9.18;;
30948;SDS011;17637;51.984;21.208;2023-09-08T04:09:57;12.18;;;8.68;;
30948;SDS011;17637;51.984;21.208;2023-09-08T04:12:29;8.75;;;7.85;;
30948;SDS011;17637;51.984;21.208;2023-09-08T04:15:01;12.80;;;8.90;;
30948;SDS011;17637;51.984;21.208;2023-09-08T04:17:33;11.60;;;9.88;;
30948;SDS011;17637;51.984;21.208;2023-09-08T04:20:05;11.38;;;10.05;;
30948;SDS011;17637;51.984;21.208;2023-09-08T04:22:37;12.95;;;9.23;;
30948;SDS011;17637;51.984;21.208;2023-09-08T04:25:09;16.40;;;9.75;;
30948;SDS011;17637;51.984;21.208;2023-09-08T04:27:42;11.45;;;9.23;;
30948;SDS011;17637;51.984;21.208;2023-09-08T04:30:16;12.38;;;10.07;;
30948;SDS011;17637;51.984;21.208;2023-09-08T04:32:49;13.02;;;11.27;;
30948;SDS011;17637;51.984;21.208;2023-09-08T04:35:21;13.93;;;9.48;;
30948;SDS011;17637;51.984;21.208;2023-09-08T04:37:53;12.43;;;10.15;;
30948;SDS011;17637;51.984;21.208;2023-09-08T04:40:25;14.45;;;11.98;;
30948;SDS011;17637;51.984;21.208;2023-09-08T04:42:57;14.63;;;10.23;;
30948;SDS011;17637;51.984;21.208;2023-09-08T04:45:28;14.00;;;9.82;;
30948;SDS011;17637;51.984;21.208;2023-09-08T04:48:00;12.93;;;9.25;;
30948;SDS011;17637;51.984;21.208;2023-09-08T04:50:32;15.88;;;11.70;;
30948;SDS011;17637;51.984;21.208;2023-09-08T04:53:05;14.55;;;11.00;;
30948;SDS011;17637;51.984;21.208;2023-09-08T04:55:36;13.48;;;10.38;;
30948;SDS011;17637;51.984;21.208;2023-09-08T04:58:08;15.73;;;10.80;;
30948;SDS011;17637;51.984;21.208;2023-09-08T05:00:40;15.55;;;10.63;;
30948;SDS011;17637;51.984;21.208;2023-09-08T05:03:12;14.38;;;11.68;;
30948;SDS011;17637;51.984;21.208;2023-09-08T05:05:44;16.55;;;11.40;;
30948;SDS011;17637;51.984;21.208;2023-09-08T05:08:16;13.55;;;10.82;;
30948;SDS011;17637;51.984;21.208;2023-09-08T05:10:48;16.48;;;10.43;;
30948;SDS011;17637;51.984;21.208;2023-09-08T05:13:20;11.13;;;9.38;;
30948;SDS011;17637;51.984;21.208;2023-09-08T05:16:02;11.82;;;10.38;;
30948;SDS011;17637;51.984;21.208;2023-09-08T05:18:43;14.45;;;9.68;;
30948;SDS011;17637;51.984;21.208;2023-09-08T05:21:15;15.05;;;10.20;;
30948;SDS011;17637;51.984;21.208;2023-09-08T05:23:46;12.23;;;9.68;;
30948;SDS011;17637;51.984;21.208;2023-09-08T05:26:18;13.15;;;9.90;;
30948;SDS011;17637;51.984;21.208;2023-09-08T05:28:50;11.07;;;9.13;;
30948;SDS011;17637;51.984;21.208;2023-09-08T05:31:22;13.15;;;10.40;;
30948;SDS011;17637;51.984;21.208;2023-09-08T05:33:54;14.82;;;10.50;;
30948;SDS011;17637;51.984;21.208;2023-09-08T05:36:26;12.88;;;9.88;;
30948;SDS011;17637;51.984;21.208;2023-09-08T05:38:58;13.55;;;9.07;;
30948;SDS011;17637;51.984;21.208;2023-09-08T05:41:30;11.98;;;10.10;;
30948;SDS011;17637;51.984;21.208;2023-09-08T05:44:03;11.45;;;9.93;;
30948;SDS011;17637;51.984;21.208;2023-09-08T05:46:35;14.60;;;11.05;;
30948;SDS011;17637;51.984;21.208;2023-09-08T05:49:07;13.82;;;12.35;;
30948;SDS011;17637;51.984;21.208;2023-09-08T05:51:40;15.52;;;10.40;;
30948;SDS011;17637;51.984;21.208;2023-09-08T05:54:12;13.38;;;10.38;;
30948;SDS011;17637;51.984;21.208;2023-09-08T05:56:44;17.90;;;11.60;;
30948;SDS011;17637;51.984;21.208;2023-09-08T05:59:16;16.83;;;11.18;;
30948;SDS011;17637;51.984;21.208;2023-09-08T06:01:47;15.00;;;10.88;;
30948;SDS011;17637;51.984;21.208;2023-09-08T06:04:19;15.93;;;11.38;;
30948;SDS011;17637;51.984;21.208;2023-09-08T06:06:51;14.95;;;11.40;;
30948;SDS011;17637;51.984;21.208;2023-09-08T06:09:23;14.45;;;10.80;;
30948;SDS011;17637;51.984;21.208;2023-09-08T06:11:55;18.33;;;12.73;;
30948;SDS011;17637;51.984;21.208;2023-09-08T06:14:27;17.95;;;12.75;;
30948;SDS011;17637;51.984;21.208;2023-09-08T06:16:59;14.15;;;12.40;;
30948;SDS011;17637;51.984;21.208;2023-09-08T06:19:31;15.40;;;10.75;;
30948;SDS011;17637;51.984;21.208;2023-09-08T06:22:03;13.68;;;11.55;;
30948;SDS011;17637;51.984;21.208;2023-09-08T06:24:35;14.98;;;12.43;;
30948;SDS011;17637;51.984;21.208;2023-09-08T06:27:07;17.15;;;11.95;;
30948;SDS011;17637;51.984;21.208;2023-09-08T06:29:39;13.43;;;11.73;;
30948;SDS011;17637;51.984;21.208;2023-09-08T06:32:11;14.10;;;12.18;;
30948;SDS011;17637;51.984;21.208;2023-09-08T06:34:43;14.00;;;10.73;;
30948;SDS011;17637;51.984;21.208;2023-09-08T06:37:15;13.30;;;11.45;;
30948;SDS011;17637;51.984;21.208;2023-09-08T06:39:47;14.57;;;10.30;;
30948;SDS011;17637;51.984;21.208;2023-09-08T06:42:19;16.80;;;12.27;;
30948;SDS011;17637;51.984;21.208;2023-09-08T06:44:51;15.13;;;11.20;;
30948;SDS011;17637;51.984;21.208;2023-09-08T06:47:22;12.40;;;10.65;;
30948;SDS011;17637;51.984;21.208;2023-09-08T06:49:54;13.77;;;11.57;;
30948;SDS011;17637;51.984;21.208;2023-09-08T06:52:26;11.77;;;10.30;;
30948;SDS011;17637;51.984;21.208;2023-09-08T06:54:58;14.13;;;10.85;;
30948;SDS011;17637;51.984;21.208;2023-09-08T06:57:30;13.02;;;10.63;;
30948;SDS011;17637;51.984;21.208;2023-09-08T07:00:02;13.10;;;10.13;;
30948;SDS011;17637;51.984;21.208;2023-09-08T07:02:38;14.30;;;10.90;;
30948;SDS011;17637;51.984;21.208;2023-09-08T07:05:10;17.17;;;11.07;;
30948;SDS011;17637;51.984;21.208;2023-09-08T07:07:42;17.35;;;10.30;;
30948;SDS011;17637;51.984;21.208;2023-09-08T07:10:15;11.90;;;10.13;;
30948;SDS011;17637;51.984;21.208;2023-09-08T07:12:48;11.25;;;9.82;;
30948;SDS011;17637;51.984;21.208;2023-09-08T07:15:20;13.77;;;10.20;;
30948;SDS011;17637;51.984;21.208;2023-09-08T07:17:52;10.85;;;9.25;;
30948;SDS011;17637;51.984;21.208;2023-09-08T07:20:24;9.55;;;8.45;;
30948;SDS011;17637;51.984;21.208;2023-09-08T07:22:56;13.15;;;10.00;;
30948;SDS011;17637;51.984;21.208;2023-09-08T07:25:29;11.25;;;9.68;;
30948;SDS011;17637;51.984;21.208;2023-09-08T07:28:01;9.57;;;7.93;;
30948;SDS011;17637;51.984;21.208;2023-09-08T07:30:33;11.77;;;8.85;;
30948;SDS011;17637;51.984;21.208;2023-09-08T07:33:05;9.35;;;7.47;;
30948;SDS011;17637;51.984;21.208;2023-09-08T07:35:38;9.45;;;7.55;;
30948;SDS011;17637;51.984;21.208;2023-09-08T07:38:10;13.15;;;8.13;;
30948;SDS011;17637;51.984;21.208;2023-09-08T07:40:42;9.38;;;7.95;;
30948;SDS011;17637;51.984;21.208;2023-09-08T07:43:14;9.95;;;8.18;;
30948;SDS011;17637;51.984;21.208;2023-09-08T07:45:46;10.98;;;7.97;;
30948;SDS011;17637;51.984;21.208;2023-09-08T07:48:18;12.43;;;8.18;;
30948;SDS011;17637;51.984;21.208;2023-09-08T07:50:50;13.57;;;7.55;;
30948;SDS011;17637;51.984;21.208;2023-09-08T07:53:22;13.05;;;7.10;;
30948;SDS011;17637;51.984;21.208;2023-09-08T07:55:54;8.23;;;6.85;;
30948;SDS011;17637;51.984;21.208;2023-09-08T07:58:26;10.10;;;6.60;;
30948;SDS011;17637;51.984;21.208;2023-09-08T08:00:58;9.93;;;6.88;;
30948;SDS011;17637;51.984;21.208;2023-09-08T08:03:30;8.60;;;7.28;;
30948;SDS011;17637;51.984;21.208;2023-09-08T08:06:02;11.68;;;7.22;;
30948;SDS011;17637;51.984;21.208;2023-09-08T08:08:34;8.75;;;6.38;;
30948;SDS011;17637;51.984;21.208;2023-09-08T08:11:14;10.55;;;6.65;;
30948;SDS011;17637;51.984;21.208;2023-09-08T08:13:47;10.23;;;6.00;;
30948;SDS011;17637;51.984;21.208;2023-09-08T08:16:19;9.90;;;6.05;;
30948;SDS011;17637;51.984;21.208;2023-09-08T08:18:53;8.90;;;6.25;;
30948;SDS011;17637;51.984;21.208;2023-09-08T08:21:25;9.15;;;6.20;;
30948;SDS011;17637;51.984;21.208;2023-09-08T08:23:57;10.98;;;6.40;;
30948;SDS011;17637;51.984;21.208;2023-09-08T08:26:28;7.07;;;5.80;;
30948;SDS011;17637;51.984;21.208;2023-09-08T08:29:04;9.02;;;5.40;;
30948;SDS011;17637;51.984;21.208;2023-09-08T08:31:36;7.07;;;5.78;;
30948;SDS011;17637;51.984;21.208;2023-09-08T08:34:08;7.85;;;5.22;;
30948;SDS011;17637;51.984;21.208;2023-09-08T08:36:40;6.97;;;5.63;;
30948;SDS011;17637;51.984;21.208;2023-09-08T08:39:12;8.25;;;5.72;;
30948;SDS011;17637;51.984;21.208;2023-09-08T08:41:44;8.32;;;5.82;;
30948;SDS011;17637;51.984;21.208;2023-09-08T08:44:17;5.32;;;4.80;;
30948;SDS011;17637;51.984;21.208;2023-09-08T08:46:49;7.55;;;5.60;;
30948;SDS011;17637;51.984;21.208;2023-09-08T08:49:22;13.50;;;5.47;;
30948;SDS011;17637;51.984;21.208;2023-09-08T08:51:54;11.10;;;5.90;;
30948;SDS011;17637;51.984;21.208;2023-09-08T08:54:29;9.25;;;5.95;;
30948;SDS011;17637;51.984;21.208;2023-09-08T08:57:01;9.20;;;6.05;;
30948;SDS011;17637;51.984;21.208;2023-09-08T08:59:34;11.13;;;5.85;;
30948;SDS011;17637;51.984;21.208;2023-09-08T09:02:06;10.35;;;5.95;;
30948;SDS011;17637;51.984;21.208;2023-09-08T09:04:40;8.70;;;5.55;;
30948;SDS011;17637;51.984;21.208;2023-09-08T09:07:12;10.27;;;5.53;;
30948;SDS011;17637;51.984;21.208;2023-09-08T09:09:44;9.43;;;5.38;;
30948;SDS011;17637;51.984;21.208;2023-09-08T09:12:16;9.20;;;5.43;;
30948;SDS011;17637;51.984;21.208;2023-09-08T09:14:51;8.07;;;5.60;;
30948;SDS011;17637;51.984;21.208;2023-09-08T09:17:25;8.80;;;5.38;;
30948;SDS011;17637;51.984;21.208;2023-09-08T09:20:16;10.23;;;5.50;;
30948;SDS011;17637;51.984;21.208;2023-09-08T09:22:50;6.07;;;4.65;;
30948;SDS011;17637;51.984;21.208;2023-09-08T09:25:23;11.18;;;5.18;;
30948;SDS011;17637;51.984;21.208;2023-09-08T09:27:57;9.52;;;5.43;;
30948;SDS011;17637;51.984;21.208;2023-09-08T09:30:49;6.07;;;4.80;;
30948;SDS011;17637;51.984;21.208;2023-09-08T09:33:23;8.20;;;5.47;;
30948;SDS011;17637;51.984;21.208;2023-09-08T09:35:55;8.52;;;5.20;;
30948;SDS011;17637;51.984;21.208;2023-09-08T09:38:27;7.07;;;5.50;;
30948;SDS011;17637;51.984;21.208;2023-09-08T09:40:59;8.32;;;5.40;;
30948;SDS011;17637;51.984;21.208;2023-09-08T09:43:31;6.95;;;4.97;;
30948;SDS011;17637;51.984;21.208;2023-09-08T09:46:06;9.55;;;6.22;;
30948;SDS011;17637;51.984;21.208;2023-09-08T09:48:40;9.50;;;6.55;;
30948;SDS011;17637;51.984;21.208;2023-09-08T09:51:16;10.77;;;6.45;;
30948;SDS011;17637;51.984;21.208;2023-09-08T09:53:51;8.70;;;6.05;;
30948;SDS011;17637;51.984;21.208;2023-09-08T09:56:24;8.18;;;5.40;;
30948;SDS011;17637;51.984;21.208;2023-09-08T09:58:57;7.32;;;5.15;;
30948;SDS011;17637;51.984;21.208;2023-09-08T10:01:31;8.05;;;5.63;;
30948;SDS011;17637;51.984;21.208;2023-09-08T10:04:04;7.32;;;5.10;;
30948;SDS011;17637;51.984;21.208;2023-09-08T10:06:39;8.35;;;5.22;;
30948;SDS011;17637;51.984;21.208;2023-09-08T10:09:11;7.53;;;5.30;;
30948;SDS011;17637;51.984;21.208;2023-09-08T10:11:47;6.38;;;5.07;;
30948;SDS011;17637;51.984;21.208;2023-09-08T10:14:20;8.20;;;4.85;;
30948;SDS011;17637;51.984;21.208;2023-09-08T10:16:53;5.70;;;4.93;;
30948;SDS011;17637;51.984;21.208;2023-09-08T10:19:28;5.10;;;4.20;;
30948;SDS011;17637;51.984;21.208;2023-09-08T10:22:00;5.13;;;3.90;;
30948;SDS011;17637;51.984;21.208;2023-09-08T10:24:35;6.55;;;4.63;;
30948;SDS011;17637;51.984;21.208;2023-09-08T10:27:11;5.65;;;4.13;;
30948;SDS011;17637;51.984;21.208;2023-09-08T10:29:43;8.05;;;4.22;;
30948;SDS011;17637;51.984;21.208;2023-09-08T10:32:16;9.55;;;4.60;;
30948;SDS011;17637;51.984;21.208;2023-09-08T10:34:49;5.80;;;4.25;;
30948;SDS011;17637;51.984;21.208;2023-09-08T10:37:24;7.28;;;4.35;;
30948;SDS011;17637;51.984;21.208;2023-09-08T10:40:10;7.40;;;4.50;;
30948;SDS011;17637;51.984;21.208;2023-09-08T10:43:05;9.60;;;4.72;;
30948;SDS011;17637;51.984;21.208;2023-09-08T10:45:39;6.13;;;4.05;;
30948;SDS011;17637;51.984;21.208;2023-09-08T10:48:13;4.55;;;4.03;;
30948;SDS011;17637;51.984;21.208;2023-09-08T10:50:47;6.45;;;4.32;;
30948;SDS011;17637;51.984;21.208;2023-09-08T10:53:19;7.85;;;4.60;;
30948;SDS011;17637;51.984;21.208;2023-09-08T10:55:52;4.85;;;4.20;;
30948;SDS011;17637;51.984;21.208;2023-09-08T10:58:36;4.50;;;3.85;;
30948;SDS011;17637;51.984;21.208;2023-09-08T11:01:15;6.18;;;4.00;;
30948;SDS011;17637;51.984;21.208;2023-09-08T11:03:49;6.07;;;4.97;;
30948;SDS011;17637;51.984;21.208;2023-09-08T11:06:22;8.43;;;5.30;;
30948;SDS011;17637;51.984;21.208;2023-09-08T11:08:55;8.25;;;4.85;;
30948;SDS011;17637;51.984;21.208;2023-09-08T11:11:28;7.72;;;5.57;;
30948;SDS011;17637;51.984;21.208;2023-09-08T11:14:05;8.15;;;5.70;;
30948;SDS011;17637;51.984;21.208;2023-09-08T11:16:37;7.75;;;4.95;;
30948;SDS011;17637;51.984;21.208;2023-09-08T11:19:08;6.25;;;4.82;;
30948;SDS011;17637;51.984;21.208;2023-09-08T11:21:42;4.60;;;4.15;;
30948;SDS011;17637;51.984;21.208;2023-09-08T11:24:15;6.13;;;4.45;;
30948;SDS011;17637;51.984;21.208;2023-09-08T11:26:46;5.50;;;4.05;;
30948;SDS011;17637;51.984;21.208;2023-09-08T11:29:21;7.72;;;3.97;;
30948;SDS011;17637;51.984;21.208;2023-09-08T11:31:54;6.60;;;4.07;;
30948;SDS011;17637;51.984;21.208;2023-09-08T11:34:26;7.80;;;4.10;;
30948;SDS011;17637;51.984;21.208;2023-09-08T11:36:58;7.20;;;4.40;;
30948;SDS011;17637;51.984;21.208;2023-09-08T11:39:30;6.38;;;4.38;;
30948;SDS011;17637;51.984;21.208;2023-09-08T11:42:02;5.70;;;4.43;;
30948;SDS011;17637;51.984;21.208;2023-09-08T11:44:35;4.88;;;3.40;;
30948;SDS011;17637;51.984;21.208;2023-09-08T11:47:08;7.47;;;3.67;;
30948;SDS011;17637;51.984;21.208;2023-09-08T11:49:42;3.92;;;3.40;;
30948;SDS011;17637;51.984;21.208;2023-09-08T11:52:16;5.95;;;4.13;;
30948;SDS011;17637;51.984;21.208;2023-09-08T11:54:48;7.13;;;4.03;;
30948;SDS011;17637;51.984;21.208;2023-09-08T11:57:37;5.65;;;4.20;;
30948;SDS011;17637;51.984;21.208;2023-09-08T12:00:10;7.78;;;3.65;;
30948;SDS011;17637;51.984;21.208;2023-09-08T12:02:46;5.13;;;3.67;;
30948;SDS011;17637;51.984;21.208;2023-09-08T12:05:24;4.75;;;3.88;;
30948;SDS011;17637;51.984;21.208;2023-09-08T12:07:57;8.50;;;4.10;;
30948;SDS011;17637;51.984;21.208;2023-09-08T12:10:29;4.68;;;3.40;;
30948;SDS011;17637;51.984;21.208;2023-09-08T12:13:01;6.10;;;3.80;;
30948;SDS011;17637;51.984;21.208;2023-09-08T12:15:34;3.92;;;3.50;;
30948;SDS011;17637;51.984;21.208;2023-09-08T12:18:08;5.03;;;3.78;;
30948;SDS011;17637;51.984;21.208;2023-09-08T12:20:44;6.30;;;3.78;;
30948;SDS011;17637;51.984;21.208;2023-09-08T12:25:50;4.82;;;4.13;;
30948;SDS011;17637;51.984;21.208;2023-09-08T12:28:23;9.27;;;4.28;;
30948;SDS011;17637;51.984;21.208;2023-09-08T12:31:02;9.52;;;4.38;;
30948;SDS011;17637;51.984;21.208;2023-09-08T12:33:34;7.88;;;4.28;;
30948;SDS011;17637;51.984;21.208;2023-09-08T12:36:13;5.65;;;4.20;;
30948;SDS011;17637;51.984;21.208;2023-09-08T12:38:47;6.20;;;4.03;;
30948;SDS011;17637;51.984;21.208;2023-09-08T12:41:21;6.57;;;4.38;;
30948;SDS011;17637;51.984;21.208;2023-09-08T12:43:53;7.95;;;4.45;;
30948;SDS011;17637;51.984;21.208;2023-09-08T12:46:26;6.53;;;4.28;;
30948;SDS011;17637;51.984;21.208;2023-09-08T12:48:58;8.50;;;5.00;;
30948;SDS011;17637;51.984;21.208;2023-09-08T12:51:30;5.55;;;4.03;;
30948;SDS011;17637;51.984;21.208;2023-09-08T12:54:02;6.88;;;4.25;;
30948;SDS011;17637;51.984;21.208;2023-09-08T12:56:34;5.38;;;4.05;;
30948;SDS011;17637;51.984;21.208;2023-09-08T12:59:06;5.85;;;4.05;;
30948;SDS011;17637;51.984;21.208;2023-09-08T13:01:37;7.75;;;4.13;;
30948;SDS011;17637;51.984;21.208;2023-09-08T13:04:09;8.80;;;4.70;;
30948;SDS011;17637;51.984;21.208;2023-09-08T13:06:41;6.65;;;4.18;;
30948;SDS011;17637;51.984;21.208;2023-09-08T13:09:13;4.40;;;4.00;;
30948;SDS011;17637;51.984;21.208;2023-09-08T13:11:45;7.40;;;4.20;;
30948;SDS011;17637;51.984;21.208;2023-09-08T13:14:17;6.10;;;4.13;;
30948;SDS011;17637;51.984;21.208;2023-09-08T13:16:49;6.53;;;4.20;;
30948;SDS011;17637;51.984;21.208;2023-09-08T13:19:21;10.20;;;4.57;;
30948;SDS011;17637;51.984;21.208;2023-09-08T13:21:53;3.65;;;3.35;;
30948;SDS011;17637;51.984;21.208;2023-09-08T13:24:24;7.38;;;4.40;;
30948;SDS011;17637;51.984;21.208;2023-09-08T13:26:56;5.78;;;3.90;;
30948;SDS011;17637;51.984;21.208;2023-09-08T13:29:29;20.92;;;4.47;;
30948;SDS011;17637;51.984;21.208;2023-09-08T13:32:00;7.55;;;4.40;;
30948;SDS011;17637;51.984;21.208;2023-09-08T13:34:33;8.63;;;4.63;;
30948;SDS011;17637;51.984;21.208;2023-09-08T13:37:05;6.18;;;3.85;;
30948;SDS011;17637;51.984;21.208;2023-09-08T13:39:37;4.50;;;3.92;;
30948;SDS011;17637;51.984;21.208;2023-09-08T13:42:09;8.43;;;4.50;;
30948;SDS011;17637;51.984;21.208;2023-09-08T13:44:41;7.22;;;4.22;;
30948;SDS011;17637;51.984;21.208;2023-09-08T13:47:13;6.47;;;4.10;;
30948;SDS011;17637;51.984;21.208;2023-09-08T13:49:46;4.78;;;4.10;;
30948;SDS011;17637;51.984;21.208;2023-09-08T13:52:18;8.65;;;3.88;;
30948;SDS011;17637;51.984;21.208;2023-09-08T13:54:53;6.45;;;3.97;;
30948;SDS011;17637;51.984;21.208;2023-09-08T13:57:44;7.90;;;3.90;;
30948;SDS011;17637;51.984;21.208;2023-09-08T14:00:20;4.82;;;3.97;;
30948;SDS011;17637;51.984;21.208;2023-09-08T14:02:54;4.38;;;3.70;;
30948;SDS011;17637;51.984;21.208;2023-09-08T14:05:29;4.68;;;3.88;;
30948;SDS011;17637;51.984;21.208;2023-09-08T14:08:08;7.40;;;3.70;;
30948;SDS011;17637;51.984;21.208;2023-09-08T14:10:45;6.18;;;3.63;;
30948;SDS011;17637;51.984;21.208;2023-09-08T14:13:20;6.68;;;4.43;;
30948;SDS011;17637;51.984;21.208;2023-09-08T14:15:52;5.22;;;3.90;;
30948;SDS011;17637;51.984;21.208;2023-09-08T14:18:24;6.40;;;4.03;;
30948;SDS011;17637;51.984;21.208;2023-09-08T14:20:56;6.57;;;3.80;;
30948;SDS011;17637;51.984;21.208;2023-09-08T14:23:28;5.38;;;4.00;;
30948;SDS011;17637;51.984;21.208;2023-09-08T14:26:00;9.10;;;4.32;;
30948;SDS011;17637;51.984;21.208;2023-09-08T14:28:32;6.70;;;4.00;;
30948;SDS011;17637;51.984;21.208;2023-09-08T14:31:05;5.55;;;3.53;;
30948;SDS011;17637;51.984;21.208;2023-09-08T14:33:37;3.83;;;3.47;;
30948;SDS011;17637;51.984;21.208;2023-09-08T14:36:09;6.40;;;3.85;;
30948;SDS011;17637;51.984;21.208;2023-09-08T14:38:41;8.00;;;4.13;;
30948;SDS011;17637;51.984;21.208;2023-09-08T14:41:13;5.30;;;3.83;;
30948;SDS011;17637;51.984;21.208;2023-09-08T14:43:45;5.05;;;3.75;;
30948;SDS011;17637;51.984;21.208;2023-09-08T14:46:17;6.32;;;4.18;;
30948;SDS011;17637;51.984;21.208;2023-09-08T14:48:50;7.95;;;4.00;;
30948;SDS011;17637;51.984;21.208;2023-09-08T14:51:22;5.65;;;3.83;;
30948;SDS011;17637;51.984;21.208;2023-09-08T14:53:54;6.20;;;4.32;;
30948;SDS011;17637;51.984;21.208;2023-09-08T14:56:26;6.95;;;4.03;;
30948;SDS011;17637;51.984;21.208;2023-09-08T14:58:58;5.50;;;4.03;;
30948;SDS011;17637;51.984;21.208;2023-09-08T15:01:31;4.38;;;3.92;;
30948;SDS011;17637;51.984;21.208;2023-09-08T15:04:03;6.03;;;4.07;;